Time;durP1;ratioP1;P1;durP2;ratioP2;P2;SDS_P1;SDS_P2;PMS_P1;PMS_P2;Temp;Humidity;BMP_temperature;BMP_pressure;BME280_temperature;BME280_humidity;BME280_pressure;Samples;Min_cycle;Max_cycle;Signal;HPM_P1;HPM_P2
2023/03/03 00:01:16;;;;;;;2.15;1.50;;;;;;;;;;5058112;28;20281;-66
2023/03/03 00:03:42;;;;;;;2.17;1.40;;;;;;;;;;5048701;28;20421;-67
2023/03/03 00:06:08;;;;;;;2.00;1.47;;;;;;;;;;5063658;28;20299;-69
2023/03/03 00:08:34;;;;;;;2.22;1.50;;;;;;;;;;5062904;28;20871;-68
2023/03/03 00:10:59;;;;;;;2.20;1.50;;;;;;;;;;5042510;28;20124;-68
2023/03/03 00:13:25;;;;;;;1.73;1.38;;;;;;;;;;5063958;28;20319;-69
2023/03/03 00:15:51;;;;;;;1.70;1.20;;;;;;;;;;5045232;28;20744;-69
2023/03/03 00:18:16;;;;;;;1.75;1.42;;;;;;;;;;5050411;28;20033;-65
2023/03/03 00:20:45;;;;;;;1.60;1.20;;;;;;;;;;5069128;28;20123;-68
2023/03/03 00:23:25;;;;;;;2.03;1.35;;;;;;;;;;5050496;28;20324;-69
2023/03/03 00:25:51;;;;;;;2.20;1.50;;;;;;;;;;5049387;28;20044;-67
2023/03/03 00:28:21;;;;;;;2.08;1.50;;;;;;;;;;5020745;28;20105;-64
2023/03/03 00:30:46;;;;;;;2.08;1.45;;;;;;;;;;5050896;28;20069;-69
2023/03/03 00:33:38;;;;;;;2.03;1.50;;;;;;;;;;5049972;28;20428;-66
2023/03/03 00:36:11;;;;;;;1.63;1.17;;;;;;;;;;5063939;28;20033;-69
2023/03/03 00:38:36;;;;;;;2.03;1.33;;;;;;;;;;5039099;28;20043;-69
2023/03/03 00:41:01;;;;;;;1.85;1.30;;;;;;;;;;5054070;28;20033;-67
2023/03/03 00:43:28;;;;;;;1.70;1.30;;;;;;;;;;5050054;28;20035;-64
2023/03/03 00:45:56;;;;;;;2.00;1.50;;;;;;;;;;5024382;28;20060;-68
2023/03/03 00:48:22;;;;;;;2.17;1.55;;;;;;;;;;5068026;28;20055;-66
2023/03/03 00:50:48;;;;;;;1.45;1.10;;;;;;;;;;5066258;28;20454;-68
2023/03/03 00:53:16;;;;;;;2.05;1.45;;;;;;;;;;5068968;28;20117;-68
2023/03/03 00:55:41;;;;;;;1.88;1.45;;;;;;;;;;5042890;28;20473;-69
2023/03/03 00:58:06;;;;;;;1.98;1.50;;;;;;;;;;5066766;28;20055;-66
2023/03/03 01:00:32;;;;;;;1.90;1.50;;;;;;;;;;5067899;28;20029;-66
2023/03/03 01:02:58;;;;;;;1.80;1.40;;;;;;;;;;5068475;28;20446;-68
2023/03/03 01:05:23;;;;;;;1.92;1.30;;;;;;;;;;5057579;28;20079;-63
2023/03/03 01:07:48;;;;;;;2.00;1.47;;;;;;;;;;5056471;28;20807;-62
2023/03/03 01:10:13;;;;;;;1.67;1.13;;;;;;;;;;5036354;28;20363;-65
2023/03/03 01:12:39;;;;;;;1.83;1.17;;;;;;;;;;5053327;28;20267;-66
2023/03/03 01:15:05;;;;;;;2.00;1.57;;;;;;;;;;5034863;28;20351;-68
2023/03/03 01:17:30;;;;;;;1.80;1.38;;;;;;;;;;5024834;28;20283;-68
2023/03/03 01:19:56;;;;;;;1.80;1.33;;;;;;;;;;5020311;28;20036;-66
2023/03/03 01:22:21;;;;;;;2.57;1.20;;;;;;;;;;5029510;28;20116;-66
2023/03/03 01:24:46;;;;;;;1.97;1.30;;;;;;;;;;5053987;28;20322;-66
2023/03/03 01:27:11;;;;;;;1.87;1.20;;;;;;;;;;5057945;28;20052;-68
2023/03/03 01:29:36;;;;;;;1.60;1.10;;;;;;;;;;5034297;28;20037;-64
2023/03/03 01:32:02;;;;;;;2.00;1.30;;;;;;;;;;5034654;28;20043;-67
2023/03/03 01:34:27;;;;;;;2.10;1.30;;;;;;;;;;5057394;28;20294;-68
2023/03/03 01:36:52;;;;;;;1.80;1.10;;;;;;;;;;5053877;28;20278;-68
2023/03/03 01:39:17;;;;;;;1.80;1.20;;;;;;;;;;5051907;28;20115;-66
2023/03/03 01:41:42;;;;;;;1.87;1.43;;;;;;;;;;5056402;28;20122;-68
2023/03/03 01:44:10;;;;;;;1.70;1.20;;;;;;;;;;5057043;28;20101;-66
2023/03/03 01:46:46;;;;;;;1.95;1.45;;;;;;;;;;5031734;28;20568;-65
2023/03/03 01:49:13;;;;;;;1.95;1.30;;;;;;;;;;5022847;28;20049;-66
2023/03/03 01:51:42;;;;;;;2.17;1.25;;;;;;;;;;5051448;28;20127;-67
2023/03/03 01:54:11;;;;;;;1.70;1.23;;;;;;;;;;5054641;28;20037;-68
2023/03/03 01:56:37;;;;;;;1.88;1.02;;;;;;;;;;5040738;28;20459;-66
2023/03/03 01:59:19;;;;;;;1.90;1.08;;;;;;;;;;5035986;28;20086;-69
2023/03/03 02:01:45;;;;;;;1.42;1.00;;;;;;;;;;5042632;28;20041;-69
2023/03/03 02:04:10;;;;;;;1.90;1.23;;;;;;;;;;5028388;28;20033;-68
2023/03/03 02:06:39;;;;;;;2.10;1.30;;;;;;;;;;5052288;28;20083;-67
2023/03/03 02:09:23;;;;;;;1.83;1.20;;;;;;;;;;5050122;28;20537;-67
2023/03/03 02:11:49;;;;;;;1.58;1.17;;;;;;;;;;5062156;28;20025;-63
2023/03/03 02:14:14;;;;;;;1.77;1.13;;;;;;;;;;5056927;28;20056;-67
2023/03/03 02:16:39;;;;;;;1.80;1.30;;;;;;;;;;5058552;28;20854;-69
2023/03/03 02:19:05;;;;;;;1.43;1.10;;;;;;;;;;5054583;28;20310;-69
2023/03/03 02:21:30;;;;;;;2.07;1.27;;;;;;;;;;5050460;28;20289;-68
2023/03/03 02:23:58;;;;;;;1.87;1.30;;;;;;;;;;5050351;28;20336;-66
2023/03/03 02:26:24;;;;;;;2.00;1.20;;;;;;;;;;5060618;28;20147;-65
2023/03/03 02:28:50;;;;;;;1.80;1.20;;;;;;;;;;5037249;28;20533;-68
2023/03/03 02:31:16;;;;;;;1.67;1.17;;;;;;;;;;5052511;28;20127;-66
2023/03/03 02:33:42;;;;;;;1.83;1.10;;;;;;;;;;5058804;28;20052;-68
2023/03/03 02:36:11;;;;;;;1.73;1.20;;;;;;;;;;5058184;28;20123;-67
2023/03/03 02:38:40;;;;;;;1.83;1.20;;;;;;;;;;5053536;28;20037;-64
2023/03/03 02:41:14;;;;;;;1.65;1.25;;;;;;;;;;5027450;28;20083;-71
2023/03/03 02:43:46;;;;;;;1.75;1.25;;;;;;;;;;5047861;28;20127;-67
2023/03/03 02:46:11;;;;;;;1.40;1.20;;;;;;;;;;5049940;28;20048;-68
2023/03/03 02:48:36;;;;;;;1.33;1.03;;;;;;;;;;5029360;28;20063;-68
2023/03/03 02:51:01;;;;;;;1.67;1.20;;;;;;;;;;5049803;28;20263;-67
2023/03/03 02:53:26;;;;;;;2.07;1.17;;;;;;;;;;5054312;28;20690;-68
2023/03/03 02:55:52;;;;;;;1.93;1.30;;;;;;;;;;5050358;28;20433;-68
2023/03/03 02:58:17;;;;;;;1.70;1.10;;;;;;;;;;5054712;28;20314;-68
2023/03/03 03:00:44;;;;;;;1.55;1.17;;;;;;;;;;5037830;28;20271;-66
2023/03/03 03:03:09;;;;;;;1.60;1.00;;;;;;;;;;5053954;28;20012;-69
2023/03/03 03:05:34;;;;;;;1.30;1.05;;;;;;;;;;5062803;28;20382;-68
2023/03/03 03:08:00;;;;;;;1.60;1.10;;;;;;;;;;5032670;28;20037;-69
2023/03/03 03:10:25;;;;;;;1.70;1.10;;;;;;;;;;5067556;28;20267;-68
2023/03/03 03:12:51;;;;;;;1.47;1.10;;;;;;;;;;5059348;28;20791;-69
2023/03/03 03:15:16;;;;;;;1.58;1.00;;;;;;;;;;5067749;28;20972;-66
2023/03/03 03:17:42;;;;;;;1.30;1.00;;;;;;;;;;5069645;28;20029;-68
2023/03/03 03:20:07;;;;;;;1.88;1.15;;;;;;;;;;5070395;28;20273;-67
2023/03/03 03:22:33;;;;;;;1.60;1.17;;;;;;;;;;5070022;28;20514;-67
2023/03/03 03:24:58;;;;;;;1.30;1.02;;;;;;;;;;5068943;28;20086;-66
2023/03/03 03:27:23;;;;;;;1.50;1.07;;;;;;;;;;5065203;28;20553;-65
2023/03/03 03:29:49;;;;;;;1.63;1.17;;;;;;;;;;5066101;28;20271;-61
2023/03/03 03:32:14;;;;;;;1.50;0.97;;;;;;;;;;5051338;28;20315;-69
2023/03/03 03:34:39;;;;;;;2.33;1.50;;;;;;;;;;5068533;28;20037;-68
2023/03/03 03:37:05;;;;;;;1.73;1.20;;;;;;;;;;5068054;28;20302;-69
2023/03/03 03:39:30;;;;;;;1.63;1.08;;;;;;;;;;5068902;28;20390;-68
2023/03/03 03:41:56;;;;;;;1.85;1.23;;;;;;;;;;5068890;28;20664;-68
2023/03/03 03:44:22;;;;;;;1.15;0.82;;;;;;;;;;5068791;28;20037;-66
2023/03/03 03:46:48;;;;;;;1.50;0.95;;;;;;;;;;5048242;28;20191;-67
2023/03/03 03:49:13;;;;;;;1.63;1.20;;;;;;;;;;5062885;28;20120;-68
2023/03/03 03:51:40;;;;;;;1.83;1.10;;;;;;;;;;5059034;28;20271;-66
2023/03/03 03:54:05;;;;;;;1.55;0.90;;;;;;;;;;5069333;28;20287;-68
2023/03/03 03:56:30;;;;;;;1.60;1.00;;;;;;;;;;5041651;28;20517;-68
2023/03/03 03:58:56;;;;;;;1.50;1.00;;;;;;;;;;5047918;28;20040;-67
2023/03/03 04:01:21;;;;;;;1.50;0.90;;;;;;;;;;5059624;28;20374;-66
2023/03/03 04:03:47;;;;;;;1.50;1.10;;;;;;;;;;5050444;28;20299;-68
2023/03/03 04:06:13;;;;;;;1.75;1.15;;;;;;;;;;5045309;28;20283;-66
2023/03/03 04:08:38;;;;;;;1.20;0.90;;;;;;;;;;5069037;28;20128;-69
2023/03/03 04:11:03;;;;;;;1.67;1.23;;;;;;;;;;5068725;28;20294;-65
2023/03/03 04:13:30;;;;;;;1.40;0.90;;;;;;;;;;5051469;28;20774;-67
2023/03/03 04:15:56;;;;;;;1.48;1.10;;;;;;;;;;5063479;28;20056;-66
2023/03/03 04:18:21;;;;;;;1.50;1.00;;;;;;;;;;5037256;28;20037;-67
2023/03/03 04:20:46;;;;;;;1.67;1.07;;;;;;;;;;5068627;28;20332;-67
2023/03/03 04:23:11;;;;;;;1.53;1.03;;;;;;;;;;5067378;28;20274;-67
2023/03/03 04:25:37;;;;;;;1.73;1.10;;;;;;;;;;5046997;28;20056;-64
2023/03/03 04:28:02;;;;;;;1.35;0.90;;;;;;;;;;5068043;28;20294;-68
2023/03/03 04:30:27;;;;;;;1.43;1.00;;;;;;;;;;5068068;28;20036;-69
2023/03/03 04:32:52;;;;;;;1.20;0.90;;;;;;;;;;5068127;28;20275;-66
2023/03/03 04:35:17;;;;;;;1.40;1.00;;;;;;;;;;5058702;28;20116;-67
2023/03/03 04:37:43;;;;;;;1.40;0.98;;;;;;;;;;5066086;28;20270;-67
2023/03/03 04:40:08;;;;;;;1.30;0.90;;;;;;;;;;5050438;28;20136;-68
2023/03/03 04:42:33;;;;;;;2.10;0.90;;;;;;;;;;5050137;28;20271;-65
2023/03/03 04:44:59;;;;;;;1.20;0.90;;;;;;;;;;5039189;28;20041;-69
2023/03/03 04:47:24;;;;;;;1.07;0.80;;;;;;;;;;5045836;28;20040;-67
2023/03/03 04:49:49;;;;;;;1.50;1.00;;;;;;;;;;5057771;28;20214;-68
2023/03/03 04:52:14;;;;;;;1.30;0.97;;;;;;;;;;5033687;28;20853;-70
2023/03/03 04:54:40;;;;;;;1.23;0.90;;;;;;;;;;5067450;28;20278;-66
2023/03/03 04:57:06;;;;;;;1.20;0.87;;;;;;;;;;5066753;28;20289;-69
2023/03/03 04:59:31;;;;;;;1.20;0.90;;;;;;;;;;5049263;28;20365;-64
2023/03/03 05:01:57;;;;;;;1.60;0.83;;;;;;;;;;5048015;28;20112;-66
2023/03/03 05:04:22;;;;;;;1.17;0.80;;;;;;;;;;5062078;28;20279;-70
2023/03/03 05:06:47;;;;;;;1.83;0.85;;;;;;;;;;5027291;28;20373;-63
2023/03/03 05:09:13;;;;;;;1.55;1.00;;;;;;;;;;5058176;28;20966;-72
2023/03/03 05:11:38;;;;;;;1.50;0.90;;;;;;;;;;5057424;28;20021;-73
2023/03/03 05:14:03;;;;;;;1.88;1.00;;;;;;;;;;5036856;28;20663;-72
2023/03/03 05:16:28;;;;;;;1.17;0.93;;;;;;;;;;5040845;28;20032;-66
2023/03/03 05:18:54;;;;;;;1.60;1.10;;;;;;;;;;5058261;28;20092;-70
2023/03/03 05:21:19;;;;;;;1.40;0.95;;;;;;;;;;5056549;28;20094;-68
2023/03/03 05:23:44;;;;;;;1.33;0.80;;;;;;;;;;5039522;28;20036;-74
2023/03/03 05:26:10;;;;;;;1.15;0.90;;;;;;;;;;5037733;28;21032;-67
2023/03/03 05:28:35;;;;;;;1.20;0.83;;;;;;;;;;5056289;28;20665;-66
2023/03/03 05:31:00;;;;;;;1.13;0.70;;;;;;;;;;5058459;28;20278;-71
2023/03/03 05:33:25;;;;;;;1.38;0.90;;;;;;;;;;5025864;28;20537;-68
2023/03/03 05:35:54;;;;;;;1.33;0.83;;;;;;;;;;5058242;28;20037;-72
2023/03/03 05:38:20;;;;;;;1.58;1.00;;;;;;;;;;5056505;28;20290;-72
2023/03/03 05:40:45;;;;;;;0.90;0.68;;;;;;;;;;5039175;28;20043;-71
2023/03/03 05:43:10;;;;;;;1.10;0.90;;;;;;;;;;5058634;28;20500;-70
2023/03/03 05:45:36;;;;;;;0.90;0.70;;;;;;;;;;5056725;28;20054;-64
2023/03/03 05:48:02;;;;;;;1.33;1.00;;;;;;;;;;5039088;28;20153;-69
2023/03/03 05:50:27;;;;;;;1.30;0.98;;;;;;;;;;5055869;28;20149;-70
2023/03/03 05:52:52;;;;;;;1.93;0.90;;;;;;;;;;5054527;28;20431;-67
2023/03/03 05:55:18;;;;;;;1.25;0.70;;;;;;;;;;5057861;28;20302;-64
2023/03/03 05:57:43;;;;;;;1.20;0.85;;;;;;;;;;5057003;28;20651;-71
2023/03/03 06:00:09;;;;;;;1.30;0.82;;;;;;;;;;5057557;28;20782;-68
2023/03/03 06:02:34;;;;;;;2.05;0.95;;;;;;;;;;5037075;28;20129;-68
2023/03/03 06:04:59;;;;;;;1.63;1.00;;;;;;;;;;5057485;28;20358;-77
2023/03/03 06:07:24;;;;;;;1.48;0.90;;;;;;;;;;5024355;28;20056;-63
2023/03/03 06:09:50;;;;;;;1.10;0.90;;;;;;;;;;5055763;28;20048;-69
2023/03/03 06:12:16;;;;;;;1.40;0.90;;;;;;;;;;5056021;28;20798;-72
2023/03/03 06:14:41;;;;;;;1.65;1.17;;;;;;;;;;5057210;28;20389;-67
2023/03/03 06:17:06;;;;;;;1.40;0.90;;;;;;;;;;5055821;28;20043;-65
2023/03/03 06:19:31;;;;;;;1.30;0.80;;;;;;;;;;5041073;28;20781;-71
2023/03/03 06:21:57;;;;;;;1.50;1.00;;;;;;;;;;5040566;28;20297;-70
2023/03/03 06:24:24;;;;;;;1.50;1.00;;;;;;;;;;5038399;28;20025;-72
2023/03/03 06:26:49;;;;;;;1.17;0.90;;;;;;;;;;5053929;28;20341;-66
2023/03/03 06:29:14;;;;;;;1.45;1.02;;;;;;;;;;5055325;28;20425;-76
2023/03/03 06:31:40;;;;;;;1.30;1.00;;;;;;;;;;5056042;28;20041;-68
2023/03/03 06:34:05;;;;;;;1.58;0.95;;;;;;;;;;5040082;28;20037;-67
2023/03/03 06:36:30;;;;;;;1.50;0.90;;;;;;;;;;5053611;28;20123;-68
2023/03/03 06:38:55;;;;;;;1.17;0.90;;;;;;;;;;5053373;28;20573;-68
2023/03/03 06:41:21;;;;;;;1.25;0.88;;;;;;;;;;5052597;28;20717;-66
2023/03/03 06:43:46;;;;;;;1.73;0.80;;;;;;;;;;5037331;28;20037;-66
2023/03/03 06:46:11;;;;;;;1.47;0.93;;;;;;;;;;5053717;28;20029;-67
2023/03/03 06:48:37;;;;;;;1.13;0.80;;;;;;;;;;5055680;28;20290;-73
2023/03/03 06:51:03;;;;;;;1.42;0.80;;;;;;;;;;5041376;28;20033;-74
2023/03/03 06:53:29;;;;;;;1.20;0.80;;;;;;;;;;5042304;28;20141;-68
2023/03/03 06:55:55;;;;;;;1.15;0.70;;;;;;;;;;5037740;28;20063;-67
2023/03/03 06:58:20;;;;;;;1.10;0.90;;;;;;;;;;5026195;28;20097;-73
2023/03/03 07:00:51;;;;;;;1.35;0.95;;;;;;;;;;5054417;28;20040;-75
2023/03/03 07:03:17;;;;;;;2.67;0.93;;;;;;;;;;5039712;28;20032;-70
2023/03/03 07:05:42;;;;;;;2.08;0.90;;;;;;;;;;5034971;28;20118;-67
2023/03/03 07:08:12;;;;;;;1.33;0.90;;;;;;;;;;5037714;28;20052;-72
2023/03/03 07:10:37;;;;;;;1.80;0.88;;;;;;;;;;5051865;28;20032;-72
2023/03/03 07:13:15;;;;;;;1.45;1.08;;;;;;;;;;5039326;28;20574;-72
2023/03/03 07:15:40;;;;;;;1.70;1.20;;;;;;;;;;5054417;28;20075;-70
2023/03/03 07:18:08;;;;;;;1.60;1.10;;;;;;;;;;5053126;28;20037;-73
2023/03/03 07:20:37;;;;;;;2.72;1.10;;;;;;;;;;5037381;28;20376;-67
2023/03/03 07:23:21;;;;;;;1.60;1.05;;;;;;;;;;5037590;28;20044;-69
2023/03/03 07:25:47;;;;;;;1.90;1.20;;;;;;;;;;5052288;28;20773;-69
2023/03/03 07:28:21;;;;;;;1.38;0.98;;;;;;;;;;5050949;28;20061;-69
2023/03/03 07:30:47;;;;;;;1.50;0.93;;;;;;;;;;5037235;28;20036;-67
2023/03/03 07:33:19;;;;;;;1.67;1.00;;;;;;;;;;5050563;28;20502;-66
2023/03/03 07:35:46;;;;;;;1.67;1.17;;;;;;;;;;5051041;28;20230;-70
2023/03/03 07:38:20;;;;;;;1.75;1.00;;;;;;;;;;5037555;28;20039;-65
2023/03/03 07:40:53;;;;;;;2.22;1.20;;;;;;;;;;5050849;28;20041;-67
2023/03/03 07:43:26;;;;;;;2.28;1.10;;;;;;;;;;5051088;28;20075;-65
2023/03/03 07:45:51;;;;;;;1.52;1.02;;;;;;;;;;5052354;28;20028;-71
2023/03/03 07:48:43;;;;;;;1.60;1.20;;;;;;;;;;5050595;28;20104;-70
2023/03/03 07:51:12;;;;;;;2.38;1.05;;;;;;;;;;5048490;28;20302;-68
2023/03/03 07:53:37;;;;;;;1.75;1.00;;;;;;;;;;5036609;28;20064;-67
2023/03/03 07:56:14;;;;;;;2.13;1.20;;;;;;;;;;5051386;28;20064;-65
2023/03/03 07:58:40;;;;;;;1.33;0.90;;;;;;;;;;5023069;28;20377;-68
2023/03/03 08:01:24;;;;;;;2.22;1.00;;;;;;;;;;5037144;28;20044;-70
2023/03/03 08:03:49;;;;;;;1.67;1.10;;;;;;;;;;5056406;28;20683;-69
2023/03/03 08:06:34;;;;;;;1.50;1.17;;;;;;;;;;5053782;28;20035;-75
2023/03/03 08:09:09;;;;;;;1.58;1.13;;;;;;;;;;5020700;28;21205;-66
2023/03/03 08:11:36;;;;;;;2.10;1.05;;;;;;;;;;5054214;28;20318;-67
2023/03/03 08:14:01;;;;;;;2.38;1.38;;;;;;;;;;5054193;28;20025;-68
2023/03/03 08:16:34;;;;;;;1.67;1.17;;;;;;;;;;5022140;28;20040;-68
2023/03/03 08:19:00;;;;;;;1.98;1.17;;;;;;;;;;5034115;28;20279;-68
2023/03/03 08:21:25;;;;;;;1.60;1.05;;;;;;;;;;5052358;28;20036;-69
2023/03/03 08:23:52;;;;;;;2.15;1.00;;;;;;;;;;5040238;28;20072;-66
2023/03/03 08:26:18;;;;;;;1.85;1.38;;;;;;;;;;5035126;28;20098;-67
2023/03/03 08:28:43;;;;;;;1.80;1.20;;;;;;;;;;5040510;28;20634;-72
2023/03/03 08:31:08;;;;;;;2.42;1.20;;;;;;;;;;5039968;28;20040;-69
2023/03/03 08:33:34;;;;;;;2.00;1.30;;;;;;;;;;5025334;28;20072;-70
2023/03/03 08:35:59;;;;;;;1.63;1.00;;;;;;;;;;5057606;28;20047;-68
2023/03/03 08:38:24;;;;;;;2.00;1.40;;;;;;;;;;5055179;28;20434;-73
2023/03/03 08:40:49;;;;;;;2.00;1.30;;;;;;;;;;5050682;28;20295;-67
2023/03/03 08:43:17;;;;;;;1.83;1.40;;;;;;;;;;5054547;28;20327;-70
2023/03/03 08:45:45;;;;;;;1.67;1.25;;;;;;;;;;5055516;28;20040;-69
2023/03/03 08:48:10;;;;;;;1.67;1.20;;;;;;;;;;5053858;28;20115;-68
2023/03/03 08:50:35;;;;;;;2.17;1.50;;;;;;;;;;5054107;28;20143;-74
2023/03/03 08:53:00;;;;;;;2.60;1.67;;;;;;;;;;5054205;28;20887;-70
2023/03/03 08:55:26;;;;;;;3.03;1.50;;;;;;;;;;5053675;28;20352;-66
2023/03/03 08:57:51;;;;;;;2.10;1.40;;;;;;;;;;5052423;28;20293;-65
2023/03/03 09:00:17;;;;;;;2.92;1.58;;;;;;;;;;5038866;28;20037;-69
2023/03/03 09:02:42;;;;;;;5.60;1.70;;;;;;;;;;5052574;28;20045;-67
2023/03/03 09:05:07;;;;;;;4.07;1.90;;;;;;;;;;5037181;28;20665;-68
2023/03/03 09:07:33;;;;;;;2.70;1.42;;;;;;;;;;5054975;28;21455;-66
2023/03/03 09:09:58;;;;;;;5.22;1.77;;;;;;;;;;5055026;28;20044;-69
2023/03/03 09:12:26;;;;;;;2.20;1.47;;;;;;;;;;5035248;28;20056;-65
2023/03/03 09:14:52;;;;;;;2.95;1.50;;;;;;;;;;5039532;28;20318;-71
2023/03/03 09:17:24;;;;;;;4.10;1.30;;;;;;;;;;5041289;28;20037;-67
2023/03/03 09:19:50;;;;;;;2.15;1.50;;;;;;;;;;5035032;28;20326;-64
2023/03/03 09:22:22;;;;;;;2.47;1.63;;;;;;;;;;5050697;28;20060;-67
2023/03/03 09:24:48;;;;;;;2.95;1.40;;;;;;;;;;5051954;28;20428;-67
2023/03/03 09:27:33;;;;;;;2.17;1.50;;;;;;;;;;5039997;28;20365;-68
2023/03/03 09:30:22;;;;;;;2.33;1.60;;;;;;;;;;5034836;28;20128;-67
2023/03/03 09:32:47;;;;;;;2.72;1.58;;;;;;;;;;5045088;28;20504;-69
2023/03/03 09:35:40;;;;;;;3.03;1.67;;;;;;;;;;5039882;28;20035;-67
2023/03/03 09:38:24;;;;;;;2.22;1.52;;;;;;;;;;5051375;28;20041;-66
2023/03/03 09:41:12;;;;;;;2.10;1.40;;;;;;;;;;5054955;28;20035;-68
2023/03/03 09:43:48;;;;;;;2.50;1.70;;;;;;;;;;5037086;28;20074;-70
2023/03/03 09:46:17;;;;;;;2.45;1.48;;;;;;;;;;5035552;28;20040;-67
2023/03/03 09:49:01;;;;;;;2.13;1.60;;;;;;;;;;5052115;28;20139;-70
2023/03/03 09:51:38;;;;;;;2.22;1.42;;;;;;;;;;5052785;28;20119;-69
2023/03/03 09:54:07;;;;;;;2.58;1.40;;;;;;;;;;5055800;28;20530;-67
2023/03/03 09:56:41;;;;;;;2.10;1.42;;;;;;;;;;5053997;28;20092;-70
2023/03/03 09:59:06;;;;;;;1.80;1.30;;;;;;;;;;5052542;28;20033;-66
2023/03/03 10:01:47;;;;;;;1.77;1.38;;;;;;;;;;5053967;28;20032;-71
2023/03/03 10:04:18;;;;;;;2.45;1.65;;;;;;;;;;5052994;28;20052;-68
2023/03/03 10:06:55;;;;;;;1.83;1.35;;;;;;;;;;5053940;28;20039;-71
2023/03/03 10:09:30;;;;;;;2.08;1.50;;;;;;;;;;5035513;28;20186;-67
2023/03/03 10:11:57;;;;;;;3.70;1.65;;;;;;;;;;5054705;28;20063;-70
2023/03/03 10:14:31;;;;;;;2.20;1.60;;;;;;;;;;5054823;28;20113;-71
2023/03/03 10:17:01;;;;;;;2.60;1.50;;;;;;;;;;5053817;28;20118;-71
2023/03/03 10:19:33;;;;;;;4.45;1.88;;;;;;;;;;5024505;28;20172;-65
2023/03/03 10:22:18;;;;;;;2.60;1.60;;;;;;;;;;5055354;28;20041;-65
2023/03/03 10:24:49;;;;;;;2.60;1.63;;;;;;;;;;5036805;28;20037;-68
2023/03/03 10:27:21;;;;;;;3.08;1.77;;;;;;;;;;5054867;28;20131;-65
2023/03/03 10:30:05;;;;;;;2.15;1.52;;;;;;;;;;5053809;28;20231;-65
2023/03/03 10:32:59;;;;;;;3.47;1.80;;;;;;;;;;5054120;28;20123;-66
2023/03/03 10:35:33;;;;;;;2.75;1.60;;;;;;;;;;5054574;28;20041;-68
2023/03/03 10:38:10;;;;;;;3.58;1.80;;;;;;;;;;5056763;28;20032;-68
2023/03/03 10:40:42;;;;;;;2.85;1.90;;;;;;;;;;5053066;28;20025;-65
2023/03/03 10:43:26;;;;;;;3.13;1.85;;;;;;;;;;5054298;28;20033;-67
2023/03/03 10:46:03;;;;;;;3.22;1.75;;;;;;;;;;5054249;28;20071;-65
2023/03/03 10:48:32;;;;;;;2.88;1.90;;;;;;;;;;5050772;28;20054;-66
2023/03/03 10:51:02;;;;;;;3.45;1.65;;;;;;;;;;5035084;28;20037;-66
2023/03/03 10:53:30;;;;;;;2.75;1.83;;;;;;;;;;5052781;28;20036;-65
2023/03/03 10:55:55;;;;;;;2.28;1.67;;;;;;;;;;5053338;28;20051;-67
2023/03/03 10:58:33;;;;;;;2.80;1.70;;;;;;;;;;5051698;28;20052;-71
2023/03/03 11:00:58;;;;;;;2.65;1.90;;;;;;;;;;5039582;28;20033;-71
2023/03/03 11:03:41;;;;;;;2.92;1.95;;;;;;;;;;5053873;28;21982;-66
2023/03/03 11:06:21;;;;;;;2.40;1.73;;;;;;;;;;5038307;28;20040;-71
2023/03/03 11:08:46;;;;;;;3.03;2.08;;;;;;;;;;5055060;28;20556;-65
2023/03/03 11:11:15;;;;;;;2.40;1.53;;;;;;;;;;5054346;28;20048;-69
2023/03/03 11:13:40;;;;;;;2.90;2.00;;;;;;;;;;5036516;28;20036;-71
2023/03/03 11:16:13;;;;;;;2.30;1.70;;;;;;;;;;5052800;28;21278;-72
2023/03/03 11:18:42;;;;;;;2.60;1.80;;;;;;;;;;5054647;28;20059;-66
2023/03/03 11:21:16;;;;;;;2.85;1.80;;;;;;;;;;5052226;28;20112;-68
2023/03/03 11:24:00;;;;;;;2.10;1.45;;;;;;;;;;5037885;28;20171;-70
2023/03/03 11:26:27;;;;;;;2.63;1.70;;;;;;;;;;5054189;28;20051;-67
2023/03/03 11:28:52;;;;;;;2.30;1.80;;;;;;;;;;5057347;28;20767;-65
2023/03/03 11:31:29;;;;;;;3.22;1.63;;;;;;;;;;5058835;28;20044;-70
2023/03/03 11:33:55;;;;;;;3.22;1.77;;;;;;;;;;5058704;28;20090;-65
2023/03/03 11:36:22;;;;;;;2.72;1.88;;;;;;;;;;5058311;28;20033;-69
2023/03/03 11:38:50;;;;;;;3.20;2.15;;;;;;;;;;5051181;28;20058;-70
2023/03/03 11:41:21;;;;;;;5.85;1.80;;;;;;;;;;5032658;28;20058;-70
2023/03/03 11:43:49;;;;;;;4.25;2.08;;;;;;;;;;5067648;28;20500;-67
2023/03/03 11:46:15;;;;;;;12.80;2.50;;;;;;;;;;5066154;28;20037;-69
2023/03/03 11:48:52;;;;;;;5.13;2.05;;;;;;;;;;5051476;28;20052;-72
2023/03/03 11:51:37;;;;;;;7.32;2.10;;;;;;;;;;5066640;28;20045;-73
2023/03/03 11:54:16;;;;;;;7.03;2.08;;;;;;;;;;5048501;28;20568;-68
2023/03/03 11:56:42;;;;;;;2.97;2.00;;;;;;;;;;5042819;28;20048;-71
2023/03/03 11:59:08;;;;;;;3.13;1.85;;;;;;;;;;5067669;28;20112;-66
2023/03/03 12:01:48;;;;;;;3.92;1.88;;;;;;;;;;5051525;28;20052;-69
2023/03/03 12:04:26;;;;;;;4.72;2.00;;;;;;;;;;5031986;28;20123;-70
2023/03/03 12:07:11;;;;;;;3.95;1.83;;;;;;;;;;5061603;28;20024;-66
2023/03/03 12:09:36;;;;;;;4.47;1.90;;;;;;;;;;5058010;28;20025;-70
2023/03/03 12:12:06;;;;;;;4.30;1.80;;;;;;;;;;5042472;28;20128;-71
2023/03/03 12:14:41;;;;;;;4.97;2.08;;;;;;;;;;5051427;28;20294;-71
2023/03/03 12:17:25;;;;;;;20.73;3.60;;;;;;;;;;5068298;28;20072;-68
2023/03/03 12:19:56;;;;;;;8.40;2.35;;;;;;;;;;5066063;28;20040;-70
2023/03/03 12:22:28;;;;;;;7.38;2.00;;;;;;;;;;5064137;28;20093;-69
2023/03/03 12:25:09;;;;;;;5.75;2.30;;;;;;;;;;5043867;28;20043;-70
2023/03/03 12:27:44;;;;;;;6.30;2.25;;;;;;;;;;5054329;28;20109;-67
2023/03/03 12:30:12;;;;;;;6.40;2.15;;;;;;;;;;5019842;28;20048;-65
2023/03/03 12:32:55;;;;;;;7.72;2.40;;;;;;;;;;5036555;28;20037;-67
2023/03/03 12:35:39;;;;;;;6.63;2.35;;;;;;;;;;5042726;28;20067;-68
2023/03/03 12:38:14;;;;;;;5.10;2.30;;;;;;;;;;5058073;28;20365;-66
2023/03/03 12:40:40;;;;;;;5.68;2.20;;;;;;;;;;5039204;28;20039;-69
2023/03/03 12:43:12;;;;;;;8.07;2.42;;;;;;;;;;5055974;28;22121;-68
2023/03/03 12:45:55;;;;;;;5.50;2.83;;;;;;;;;;5057508;28;20518;-67
2023/03/03 12:48:24;;;;;;;5.05;2.58;;;;;;;;;;5056326;28;20056;-68
2023/03/03 12:51:00;;;;;;;6.25;2.20;;;;;;;;;;5054581;28;20041;-68
2023/03/03 12:53:29;;;;;;;6.57;2.58;;;;;;;;;;5038006;28;20098;-67
2023/03/03 12:56:04;;;;;;;6.03;2.60;;;;;;;;;;5055965;28;20089;-66
2023/03/03 12:58:43;;;;;;;7.90;3.05;;;;;;;;;;5040144;28;20033;-66
2023/03/03 13:01:09;;;;;;;6.45;3.22;;;;;;;;;;5054291;28;20041;-66
2023/03/03 13:03:37;;;;;;;6.50;3.03;;;;;;;;;;5038169;28;20094;-69
2023/03/03 13:06:14;;;;;;;4.50;2.58;;;;;;;;;;5051186;28;20366;-68
2023/03/03 13:08:56;;;;;;;4.93;2.90;;;;;;;;;;5052728;28;20083;-70
2023/03/03 13:11:21;;;;;;;4.40;2.60;;;;;;;;;;5041062;28;20296;-68
2023/03/03 13:13:46;;;;;;;4.50;2.47;;;;;;;;;;5053507;28;20337;-65
2023/03/03 13:16:12;;;;;;;5.13;2.60;;;;;;;;;;5053316;28;20303;-68
2023/03/03 13:18:37;;;;;;;5.63;2.95;;;;;;;;;;5054450;28;20036;-66
2023/03/03 13:21:04;;;;;;;6.33;2.50;;;;;;;;;;5053103;28;20059;-70
2023/03/03 13:23:37;;;;;;;4.22;2.20;;;;;;;;;;5053573;28;20299;-66
2023/03/03 13:26:20;;;;;;;5.43;2.30;;;;;;;;;;5036439;28;20049;-71
2023/03/03 13:28:53;;;;;;;4.78;2.30;;;;;;;;;;5035916;28;20280;-69
2023/03/03 13:31:19;;;;;;;6.50;2.50;;;;;;;;;;5053002;28;20045;-67
2023/03/03 13:33:52;;;;;;;5.25;2.40;;;;;;;;;;5037683;28;20218;-64
2023/03/03 13:36:17;;;;;;;6.28;3.03;;;;;;;;;;5036031;28;20515;-70
2023/03/03 13:38:47;;;;;;;3.90;2.35;;;;;;;;;;5034884;28;20017;-65
2023/03/03 13:41:15;;;;;;;3.80;2.35;;;;;;;;;;5020754;28;20135;-72
2023/03/03 13:44:06;;;;;;;4.15;2.30;;;;;;;;;;5055381;28;20047;-70
2023/03/03 13:46:44;;;;;;;3.75;2.20;;;;;;;;;;5039492;28;20052;-69
2023/03/03 13:49:28;;;;;;;3.53;2.22;;;;;;;;;;5051598;28;20114;-70
2023/03/03 13:51:56;;;;;;;3.97;2.38;;;;;;;;;;5052158;28;20037;-67
2023/03/03 13:54:21;;;;;;;3.80;2.28;;;;;;;;;;5037349;28;20040;-71
2023/03/03 13:56:53;;;;;;;4.13;2.53;;;;;;;;;;5050962;28;20517;-67
2023/03/03 13:59:38;;;;;;;4.28;2.42;;;;;;;;;;5039438;28;20290;-68
2023/03/03 14:02:27;;;;;;;5.28;2.40;;;;;;;;;;5052301;28;20044;-63
2023/03/03 14:04:53;;;;;;;4.10;2.10;;;;;;;;;;5012235;28;20083;-63
2023/03/03 14:07:20;;;;;;;4.32;2.53;;;;;;;;;;5051784;28;20044;-69
2023/03/03 14:10:16;;;;;;;4.10;2.30;;;;;;;;;;5054224;28;20040;-66
2023/03/03 14:12:41;;;;;;;3.88;2.45;;;;;;;;;;4999702;28;20104;-66
2023/03/03 14:15:25;;;;;;;5.00;2.47;;;;;;;;;;5050748;28;20061;-69
2023/03/03 14:17:53;;;;;;;4.80;2.28;;;;;;;;;;5054552;28;20049;-65
2023/03/03 14:20:19;;;;;;;3.83;2.10;;;;;;;;;;5038325;28;20064;-66
2023/03/03 14:22:45;;;;;;;4.30;2.60;;;;;;;;;;5053275;28;20091;-66
2023/03/03 14:25:11;;;;;;;3.22;1.98;;;;;;;;;;5039167;28;20088;-69
2023/03/03 14:27:39;;;;;;;3.28;2.30;;;;;;;;;;5038651;28;20052;-63
2023/03/03 14:30:23;;;;;;;3.80;2.40;;;;;;;;;;5053521;28;20047;-68
2023/03/03 14:32:57;;;;;;;3.60;2.47;;;;;;;;;;5053216;28;20047;-67
2023/03/03 14:35:24;;;;;;;2.95;2.20;;;;;;;;;;5052642;28;20044;-68
2023/03/03 14:37:50;;;;;;;3.30;2.53;;;;;;;;;;5037729;28;20052;-71
2023/03/03 14:40:21;;;;;;;3.43;2.20;;;;;;;;;;5052740;28;20091;-68
2023/03/03 14:42:47;;;;;;;5.22;2.60;;;;;;;;;;5052971;28;20371;-64
2023/03/03 14:45:31;;;;;;;3.47;2.00;;;;;;;;;;5052643;28;20174;-65
2023/03/03 14:47:58;;;;;;;3.42;2.25;;;;;;;;;;5021170;28;20052;-68
2023/03/03 14:50:34;;;;;;;3.58;2.00;;;;;;;;;;5051534;28;20186;-67
2023/03/03 14:53:20;;;;;;;3.10;2.00;;;;;;;;;;5052132;28;20044;-69
2023/03/03 14:55:46;;;;;;;3.17;2.22;;;;;;;;;;5036170;28;20067;-69